createdAt,value
2023-05-24T00:01:57.037Z,4.57
2023-05-24T00:04:29.484Z,4.60
2023-05-24T00:07:01.762Z,4.77
2023-05-24T00:09:35.799Z,4.00
2023-05-24T00:12:06.897Z,4.47
2023-05-24T00:14:38.085Z,5.17
2023-05-24T00:17:08.742Z,3.47
2023-05-24T00:19:39.386Z,4.47
2023-05-24T00:22:09.915Z,3.90
2023-05-24T00:24:42.183Z,4.43
2023-05-24T00:27:12.719Z,5.27
2023-05-24T00:29:43.375Z,5.00
2023-05-24T00:32:13.992Z,4.70
2023-05-24T00:34:45.773Z,4.80
2023-05-24T00:37:16.349Z,4.07
2023-05-24T00:39:46.813Z,4.40
2023-05-24T00:42:19.119Z,4.63
2023-05-24T00:44:49.745Z,4.00
2023-05-24T00:47:20.652Z,4.40
2023-05-24T00:49:51.241Z,4.17
2023-05-24T00:52:22.278Z,4.57
2023-05-24T00:54:53.056Z,4.63
2023-05-24T00:57:25.153Z,4.00
2023-05-24T00:59:57.439Z,4.83
2023-05-24T01:02:28.024Z,4.63
2023-05-24T01:05:00.082Z,3.80
2023-05-24T01:07:39.787Z,4.60
2023-05-24T01:10:22.047Z,4.23
2023-05-24T01:13:04.680Z,4.00
2023-05-24T01:15:59.965Z,4.33
2023-05-24T01:18:37.129Z,4.13
2023-05-24T01:21:19.319Z,4.62
2023-05-24T01:24:10.870Z,3.47
2023-05-24T01:26:56.661Z,4.60
2023-05-24T01:29:29.537Z,4.77
2023-05-24T01:32:02.028Z,5.55
2023-05-24T01:34:33.711Z,5.55
2023-05-24T01:37:04.794Z,5.23
2023-05-24T01:39:35.331Z,5.27
2023-05-24T01:42:27.207Z,5.10
2023-05-24T01:45:17.278Z,4.30
2023-05-24T01:48:12.326Z,4.00
2023-05-24T01:50:46.312Z,3.70
2023-05-24T01:53:20.514Z,3.87
2023-05-24T01:55:54.245Z,3.83
2023-05-24T01:58:27.086Z,4.50
2023-05-24T02:00:59.625Z,3.83
2023-05-24T02:03:33.153Z,3.60
2023-05-24T02:06:03.756Z,4.03
2023-05-24T02:08:34.341Z,4.40
2023-05-24T02:11:04.912Z,4.03
2023-05-24T02:13:35.533Z,3.90
2023-05-24T02:16:06.367Z,3.92
2023-05-24T02:18:37.103Z,3.98
2023-05-24T02:21:07.867Z,3.63
2023-05-24T02:23:38.381Z,3.63
2023-05-24T02:26:10.623Z,4.08
2023-05-24T02:28:41.866Z,3.45
2023-05-24T02:31:13.128Z,3.60
2023-05-24T02:33:43.883Z,3.35
2023-05-24T02:36:14.698Z,3.92
2023-05-24T02:38:45.343Z,3.87
2023-05-24T02:41:19.960Z,3.77
2023-05-24T02:43:50.623Z,4.40
2023-05-24T02:46:21.376Z,3.73
2023-05-24T02:48:51.993Z,4.00
2023-05-24T02:51:22.582Z,4.50
2023-05-24T02:53:53.381Z,4.70
2023-05-24T02:56:24.205Z,3.50
2023-05-24T02:58:55.652Z,4.08
2023-05-24T03:01:26.337Z,5.07
2023-05-24T03:03:57.139Z,5.23
2023-05-24T03:06:27.980Z,4.67
2023-05-24T03:08:59.272Z,4.80
2023-05-24T03:11:29.811Z,4.22
2023-05-24T03:14:00.320Z,3.77
2023-05-24T03:16:31.963Z,4.35
2023-05-24T03:19:02.751Z,3.77
2023-05-24T03:21:33.605Z,4.23
2023-05-24T03:24:04.334Z,4.30
2023-05-24T03:26:35.051Z,4.27
2023-05-24T03:29:07.112Z,4.30
2023-05-24T03:31:37.862Z,5.03
2023-05-24T03:34:08.612Z,3.80
2023-05-24T03:36:39.223Z,4.78
2023-05-24T03:39:10.036Z,4.45
2023-05-24T03:41:40.593Z,4.22
2023-05-24T03:44:11.870Z,4.27
2023-05-24T03:46:42.998Z,4.35
2023-05-24T03:49:13.617Z,4.80
2023-05-24T03:51:45.781Z,4.92
2023-05-24T03:54:19.123Z,4.40
2023-05-24T03:56:49.760Z,4.80
2023-05-24T03:59:21.705Z,4.70
2023-05-24T04:01:52.254Z,4.27
2023-05-24T04:04:23.087Z,3.92
2023-05-24T04:06:56.233Z,3.87
2023-05-24T04:09:26.852Z,5.22
2023-05-24T04:11:59.094Z,4.30
2023-05-24T04:14:29.625Z,4.05
2023-05-24T04:17:02.411Z,5.10
2023-05-24T04:19:35.523Z,5.25
2023-05-24T04:22:06.197Z,3.87
2023-05-24T04:24:39.333Z,4.60
2023-05-24T04:27:10.856Z,4.17
2023-05-24T04:29:42.196Z,4.57
2023-05-24T04:32:14.538Z,4.40
2023-05-24T04:34:46.298Z,4.80
2023-05-24T04:37:17.285Z,5.95
2023-05-24T04:39:49.297Z,5.53
2023-05-24T04:42:20.369Z,6.17
2023-05-24T04:44:51.026Z,4.97
2023-05-24T04:47:21.660Z,4.57
2023-05-24T04:49:52.220Z,4.55
2023-05-24T04:52:22.842Z,4.37
2023-05-24T04:54:54.832Z,4.58
2023-05-24T04:57:25.345Z,6.10
2023-05-24T04:59:56.177Z,5.17
2023-05-24T05:02:27.306Z,4.95
2023-05-24T05:04:59.127Z,5.03
2023-05-24T05:07:31.210Z,4.97
2023-05-24T05:10:02.071Z,5.40
2023-05-24T05:12:34.221Z,5.62
2023-05-24T05:15:05.194Z,5.75
2023-05-24T05:17:37.179Z,5.70
2023-05-24T05:20:10.676Z,6.08
2023-05-24T05:22:42.901Z,5.60
2023-05-24T05:25:13.641Z,5.97
2023-05-24T05:27:44.877Z,5.87
2023-05-24T05:30:16.078Z,6.13
2023-05-24T05:32:47.015Z,5.00
2023-05-24T05:35:19.297Z,6.83
2023-05-24T05:37:49.749Z,5.30
2023-05-24T05:40:20.943Z,5.50
2023-05-24T05:42:53.868Z,5.70
2023-05-24T05:45:25.885Z,5.35
2023-05-24T05:47:58.980Z,5.30
2023-05-24T05:50:29.848Z,5.25
2023-05-24T05:53:00.416Z,5.08
2023-05-24T05:55:31.181Z,5.70
2023-05-24T05:58:03.944Z,5.50
2023-05-24T06:00:34.717Z,5.20
2023-05-24T06:03:05.407Z,5.75
2023-05-24T06:05:36.476Z,5.87
2023-05-24T06:08:07.221Z,5.67
2023-05-24T06:10:38.248Z,5.10
2023-05-24T06:13:08.963Z,5.65
2023-05-24T06:15:40.552Z,5.40
2023-05-24T06:18:11.013Z,5.37
2023-05-24T06:20:44.986Z,6.17
2023-05-24T06:23:16.407Z,6.15
2023-05-24T06:25:48.553Z,5.22
2023-05-24T06:28:20.771Z,6.20
2023-05-24T06:30:51.798Z,6.03
2023-05-24T06:33:22.672Z,6.53
2023-05-24T06:35:53.463Z,6.47
2023-05-24T06:38:25.450Z,6.45
2023-05-24T06:40:56.056Z,7.50
2023-05-24T06:43:28.183Z,6.10
2023-05-24T06:45:58.694Z,6.80
2023-05-24T06:48:29.763Z,6.87
2023-05-24T06:51:01.642Z,6.67
2023-05-24T06:53:35.622Z,6.67
2023-05-24T06:56:07.794Z,6.72
2023-05-24T06:58:38.464Z,5.95
2023-05-24T07:01:09.473Z,6.87
2023-05-24T07:03:39.983Z,6.40
2023-05-24T07:06:12.308Z,6.17
2023-05-24T07:08:43.183Z,5.95
2023-05-24T07:11:15.268Z,6.67
2023-05-24T07:13:45.874Z,7.00
2023-05-24T07:16:16.441Z,6.28
2023-05-24T07:18:47.152Z,6.37
2023-05-24T07:21:17.810Z,6.03
2023-05-24T07:23:49.200Z,5.90
2023-05-24T07:26:19.973Z,6.28
2023-05-24T07:28:51.946Z,5.75
2023-05-24T07:31:23.087Z,5.87
2023-05-24T07:33:53.629Z,5.60
2023-05-24T07:36:28.954Z,6.20
2023-05-24T07:39:01.447Z,6.12
2023-05-24T07:41:33.438Z,5.80
2023-05-24T07:44:04.984Z,6.03
2023-05-24T07:46:35.572Z,6.67
2023-05-24T07:49:07.805Z,6.12
2023-05-24T07:51:39.104Z,6.58
2023-05-24T07:54:09.742Z,6.85
2023-05-24T07:56:40.323Z,6.03
2023-05-24T07:59:10.840Z,7.20
2023-05-24T08:01:41.433Z,6.33
2023-05-24T08:04:12.204Z,6.55
2023-05-24T08:06:43.096Z,6.17
2023-05-24T08:09:13.848Z,6.25
2023-05-24T08:11:45.487Z,6.72
2023-05-24T08:14:16.258Z,6.10
2023-05-24T08:16:47.094Z,6.62
2023-05-24T08:19:17.948Z,7.15
2023-05-24T08:21:48.726Z,6.72
2023-05-24T08:24:19.408Z,6.53
2023-05-24T08:26:52.968Z,7.20
2023-05-24T08:29:24.308Z,8.60
2023-05-24T08:31:54.943Z,7.50
2023-05-24T08:34:25.516Z,7.35
2023-05-24T08:36:56.142Z,5.65
2023-05-24T08:42:32.517Z,7.08
2023-05-24T08:45:12.450Z,7.10
2023-05-24T08:47:43.846Z,5.45
2023-05-24T08:50:14.517Z,6.47
2023-05-24T08:52:46.758Z,6.35
2023-05-24T08:55:17.990Z,6.25
2023-05-24T08:57:49.631Z,6.75
2023-05-24T09:00:21.076Z,6.08
2023-05-24T09:02:51.704Z,6.40
2023-05-24T09:05:22.834Z,5.70
2023-05-24T09:07:55.760Z,5.90
2023-05-24T09:13:01.572Z,6.05
2023-05-24T09:15:32.344Z,5.83
2023-05-24T09:18:04.630Z,6.10
2023-05-24T09:20:35.832Z,6.12
2023-05-24T09:23:08.629Z,5.78
2023-05-24T09:25:47.342Z,6.00
2023-05-24T09:28:21.716Z,5.42
2023-05-24T09:31:07.344Z,5.62
2023-05-24T09:33:36.569Z,6.15
2023-05-24T09:36:07.651Z,5.10
2023-05-24T09:38:38.332Z,6.60
2023-05-24T09:41:11.033Z,5.83
2023-05-24T09:43:52.035Z,6.05
2023-05-24T09:46:25.641Z,4.90
2023-05-24T09:49:00.449Z,5.03
2023-05-24T09:51:32.514Z,5.37
2023-05-24T09:54:04.108Z,5.35
2023-05-24T09:56:35.284Z,5.45
2023-05-24T09:59:09.951Z,5.72
2023-05-24T10:01:40.830Z,5.30
2023-05-24T10:04:12.547Z,5.28
2023-05-24T10:06:45.342Z,6.42
2023-05-24T10:09:16.777Z,5.70
2023-05-24T10:11:47.311Z,6.33
2023-05-24T10:14:22.321Z,5.87
2023-05-24T10:16:53.108Z,5.85
2023-05-24T10:19:24.146Z,5.30
2023-05-24T10:21:57.859Z,6.00
2023-05-24T10:24:37.560Z,5.10
2023-05-24T10:27:11.349Z,5.37
2023-05-24T10:30:09.498Z,4.72
2023-05-24T10:32:41.412Z,4.90
2023-05-24T10:35:14.785Z,5.40
2023-05-24T10:37:47.952Z,5.78
2023-05-24T10:40:20.826Z,5.03
2023-05-24T10:42:51.875Z,4.62
2023-05-24T10:45:37.231Z,4.25
2023-05-24T10:48:17.034Z,4.37
2023-05-24T10:50:48.079Z,4.25
2023-05-24T10:53:20.411Z,3.60
2023-05-24T10:56:01.820Z,3.90
2023-05-24T10:58:58.340Z,4.22
2023-05-24T11:01:31.872Z,3.60
2023-05-24T11:04:21.428Z,4.50
2023-05-24T11:07:01.456Z,4.50
2023-05-24T11:09:33.989Z,4.40
2023-05-24T11:12:11.249Z,4.00
2023-05-24T11:14:42.483Z,4.35
2023-05-24T11:17:13.150Z,4.50
2023-05-24T11:19:52.882Z,3.92
2023-05-24T11:22:27.455Z,3.42
2023-05-24T11:25:00.017Z,4.35
2023-05-24T11:27:33.178Z,4.12
2023-05-24T11:30:06.003Z,3.60
2023-05-24T11:32:38.783Z,3.40
2023-05-24T11:35:11.729Z,3.40
2023-05-24T11:37:46.762Z,3.30
2023-05-24T11:40:17.429Z,5.80
2023-05-24T11:42:48.249Z,3.20
2023-05-24T11:45:19.608Z,3.37
2023-05-24T11:47:51.714Z,3.52
2023-05-24T11:50:28.466Z,7.65
2023-05-24T11:53:04.836Z,3.80
2023-05-24T11:55:35.471Z,3.45
2023-05-24T11:58:11.165Z,4.28
2023-05-24T12:00:44.603Z,3.37
2023-05-24T12:03:17.446Z,3.55
2023-05-24T12:05:49.308Z,3.52
2023-05-24T12:08:20.510Z,3.35
2023-05-24T12:10:51.858Z,3.70
2023-05-24T12:13:24.814Z,3.62
2023-05-24T12:15:56.859Z,3.80
2023-05-24T12:18:27.825Z,3.25
2023-05-24T12:21:00.016Z,3.50
2023-05-24T12:23:32.204Z,3.83
2023-05-24T12:26:04.015Z,3.60
2023-05-24T12:28:39.123Z,4.00
2023-05-24T12:31:10.540Z,3.50
2023-05-24T12:33:41.488Z,3.60
2023-05-24T12:36:14.153Z,5.25
2023-05-24T12:38:45.936Z,4.47
2023-05-24T12:41:17.493Z,3.98
2023-05-24T12:43:48.066Z,3.58
2023-05-24T12:46:19.713Z,3.62
2023-05-24T12:48:52.071Z,3.15
2023-05-24T12:51:26.801Z,3.52
2023-05-24T12:53:58.369Z,5.12
2023-05-24T12:56:29.478Z,4.30
2023-05-24T12:59:00.834Z,4.20
2023-05-24T13:01:33.828Z,3.37
2023-05-24T13:04:04.719Z,3.55
2023-05-24T13:06:35.510Z,3.70
2023-05-24T13:09:06.424Z,3.87
2023-05-24T13:11:38.549Z,3.87
2023-05-24T13:14:09.346Z,4.00
2023-05-24T13:16:39.993Z,4.37
2023-05-24T13:19:11.660Z,4.05
2023-05-24T13:21:43.033Z,5.90
2023-05-24T13:24:17.431Z,4.17
2023-05-24T13:26:51.578Z,3.77
2023-05-24T13:29:36.732Z,3.92
2023-05-24T13:31:54.778Z,3.50
2023-05-24T13:34:27.402Z,3.60
2023-05-24T13:36:59.950Z,3.65
2023-05-24T13:39:30.683Z,4.08
2023-05-24T13:42:02.499Z,3.47
2023-05-24T13:44:33.122Z,3.62
2023-05-24T13:47:03.689Z,4.00
2023-05-24T13:49:34.595Z,7.00
2023-05-24T13:52:05.344Z,3.47
2023-05-24T13:54:37.019Z,4.62
2023-05-24T13:57:09.060Z,4.30
2023-05-24T13:59:40.429Z,4.17
2023-05-24T14:02:11.995Z,4.60
2023-05-24T14:04:43.294Z,4.80
2023-05-24T14:07:16.024Z,3.92
2023-05-24T14:09:46.950Z,4.70
2023-05-24T14:12:19.281Z,3.87
2023-05-24T14:17:23.307Z,3.92
2023-05-24T14:19:54.003Z,4.20
2023-05-24T14:22:26.236Z,3.92
2023-05-24T14:24:57.117Z,3.77
2023-05-24T14:27:27.956Z,3.90
2023-05-24T14:29:58.605Z,4.00
2023-05-24T14:32:29.300Z,4.17
2023-05-24T14:35:01.153Z,3.72
2023-05-24T14:37:33.205Z,3.87
2023-05-24T14:40:05.585Z,4.12
2023-05-24T14:42:36.285Z,4.15
2023-05-24T14:45:08.029Z,4.47
2023-05-24T14:47:38.539Z,3.98
2023-05-24T14:50:09.698Z,3.80
2023-05-24T14:52:41.865Z,3.87
2023-05-24T14:55:12.831Z,4.47
2023-05-24T14:57:43.784Z,4.10
2023-05-24T15:00:15.390Z,4.72
2023-05-24T15:02:46.162Z,4.10
2023-05-24T15:05:16.922Z,4.70
2023-05-24T15:07:48.251Z,5.90
2023-05-24T15:10:20.161Z,3.90
2023-05-24T15:12:52.050Z,3.62
2023-05-24T15:15:24.544Z,3.65
2023-05-24T15:17:59.628Z,3.58
2023-05-24T15:20:35.532Z,3.75
2023-05-24T15:23:02.926Z,3.90
2023-05-24T15:25:33.505Z,3.50
2023-05-24T15:28:04.065Z,3.92
2023-05-24T15:30:34.984Z,3.98
2023-05-24T15:33:06.310Z,4.92
2023-05-24T15:35:37.780Z,4.03
2023-05-24T15:38:08.645Z,3.87
2023-05-24T15:40:41.901Z,4.45
2023-05-24T15:43:13.083Z,4.12
2023-05-24T15:45:48.181Z,4.00
2023-05-24T15:48:18.925Z,4.22
2023-05-24T15:51:22.573Z,3.92
2023-05-24T15:53:24.906Z,3.80
2023-05-24T15:55:57.449Z,3.60
2023-05-24T15:58:28.126Z,3.58
2023-05-24T16:00:58.919Z,3.80
2023-05-24T16:03:29.505Z,3.92
2023-05-24T16:06:00.255Z,4.55
2023-05-24T16:08:32.441Z,3.50
2023-05-24T16:11:04.662Z,3.60
2023-05-24T16:13:36.108Z,3.45
2023-05-24T16:16:07.334Z,4.00
2023-05-24T16:18:38.008Z,4.25
2023-05-24T16:21:08.525Z,3.95
2023-05-24T16:23:38.953Z,3.67
2023-05-24T16:26:11.558Z,4.25
2023-05-24T16:28:42.058Z,3.95
2023-05-24T16:31:12.521Z,4.60
2023-05-24T16:33:43.185Z,4.30
2023-05-24T16:36:14.173Z,3.75
2023-05-24T16:38:44.885Z,3.47
2023-05-24T16:41:18.664Z,4.00
2023-05-24T16:43:49.361Z,3.60
2023-05-24T16:46:19.999Z,3.58
2023-05-24T16:48:50.892Z,3.60
2023-05-24T16:51:21.476Z,3.80
2023-05-24T16:53:52.489Z,3.60
2023-05-24T16:56:25.078Z,4.10
2023-05-24T16:58:56.044Z,4.12
2023-05-24T17:01:26.707Z,4.00
2023-05-24T17:03:57.500Z,3.58
2023-05-24T17:06:28.433Z,4.22
2023-05-24T17:08:59.260Z,3.70
2023-05-24T17:11:29.950Z,4.15
2023-05-24T17:14:01.161Z,4.65
2023-05-24T17:16:31.850Z,3.95
2023-05-24T17:19:03.536Z,4.25
2023-05-24T17:21:37.551Z,3.50
2023-05-24T17:24:08.397Z,3.83
2023-05-24T17:26:41.133Z,4.22
2023-05-24T17:29:11.850Z,3.98
2023-05-24T17:31:42.677Z,4.80
2023-05-24T17:34:15.435Z,4.12
2023-05-24T17:36:46.151Z,4.20
2023-05-24T17:39:17.528Z,4.28
2023-05-24T17:41:48.106Z,3.67
2023-05-24T17:44:18.598Z,3.80
2023-05-24T17:46:50.279Z,3.80
2023-05-24T17:49:21.022Z,3.77
2023-05-24T17:51:51.543Z,3.58
2023-05-24T17:54:22.863Z,4.10
2023-05-24T17:56:56.978Z,4.12
2023-05-24T17:59:27.603Z,4.30
2023-05-24T18:01:58.435Z,4.72
2023-05-24T18:04:29.086Z,4.53
2023-05-24T18:06:59.883Z,3.90
2023-05-24T18:09:30.764Z,4.00
2023-05-24T18:12:01.905Z,4.10
2023-05-24T18:14:33.529Z,4.92
2023-05-24T18:17:04.204Z,4.58
2023-05-24T18:19:34.862Z,4.90
2023-05-24T18:22:07.369Z,5.17
2023-05-24T18:24:39.812Z,4.92
2023-05-24T18:27:10.325Z,4.97
2023-05-24T18:29:40.947Z,5.08
2023-05-24T18:32:11.544Z,4.60
2023-05-24T18:34:43.388Z,5.37
2023-05-24T18:37:14.059Z,4.67
2023-05-24T18:39:44.830Z,4.45
2023-05-24T18:42:18.214Z,4.58
2023-05-24T18:44:48.728Z,4.47
2023-05-24T18:47:19.293Z,4.35
2023-05-24T18:49:52.028Z,4.47
2023-05-24T18:52:24.243Z,5.30
2023-05-24T18:54:56.960Z,4.83
2023-05-24T18:57:35.195Z,4.87
2023-05-24T19:00:09.718Z,4.78
2023-05-24T19:02:44.048Z,4.42
2023-05-24T19:05:16.480Z,4.22
2023-05-24T19:07:48.621Z,4.70
2023-05-24T19:10:19.323Z,4.15
2023-05-24T19:12:50.812Z,4.75
2023-05-24T19:15:25.055Z,4.83
2023-05-24T19:17:57.781Z,3.98
2023-05-24T19:20:29.744Z,5.10
2023-05-24T19:23:00.627Z,4.37
2023-05-24T19:25:31.578Z,4.80
2023-05-24T19:28:02.255Z,4.03
2023-05-24T19:30:34.038Z,4.83
2023-05-24T19:33:05.246Z,4.80
2023-05-24T19:35:37.413Z,4.92
2023-05-24T19:38:09.717Z,4.67
2023-05-24T19:40:40.255Z,4.58
2023-05-24T19:43:10.886Z,4.78
2023-05-24T19:45:41.689Z,4.70
2023-05-24T19:48:13.971Z,4.58
2023-05-24T19:50:45.535Z,5.85
2023-05-24T19:53:18.181Z,5.05
2023-05-24T19:55:50.267Z,5.80
2023-05-24T19:58:23.554Z,6.30
2023-05-24T20:00:54.145Z,6.20
2023-05-24T20:03:25.055Z,5.80
2023-05-24T20:05:55.940Z,5.20
2023-05-24T20:08:28.069Z,5.10
2023-05-24T20:10:59.899Z,4.92
2023-05-24T20:13:30.601Z,5.25
2023-05-24T20:16:01.338Z,5.25
2023-05-24T20:18:33.447Z,4.72
2023-05-24T20:21:04.280Z,5.00
2023-05-24T20:23:34.854Z,5.17
2023-05-24T20:26:05.984Z,5.83
2023-05-24T20:28:38.503Z,6.17
2023-05-24T20:31:09.253Z,5.40
2023-05-24T20:33:40.841Z,6.05
2023-05-24T20:36:11.357Z,6.03
2023-05-24T20:38:42.022Z,5.62
2023-05-24T20:41:12.581Z,5.83
2023-05-24T20:43:43.473Z,5.33
2023-05-24T20:46:15.478Z,5.50
2023-05-24T20:48:48.693Z,5.17
2023-05-24T20:51:21.904Z,5.45
2023-05-24T20:53:53.335Z,5.62
2023-05-24T20:56:24.164Z,5.50
2023-05-24T20:58:57.347Z,5.70
2023-05-24T21:01:28.096Z,5.22
2023-05-24T21:03:58.787Z,5.28
2023-05-24T21:06:31.941Z,5.30
2023-05-24T21:09:02.089Z,5.20
2023-05-24T21:11:32.712Z,5.35
2023-05-24T21:14:04.662Z,5.33
2023-05-24T21:16:35.241Z,6.08
2023-05-24T21:19:06.232Z,5.50
2023-05-24T21:21:37.556Z,5.33
2023-05-24T21:24:09.213Z,6.17
2023-05-24T21:26:39.807Z,5.53
2023-05-24T21:29:13.119Z,5.37
2023-05-24T21:31:43.776Z,5.30
2023-05-24T21:34:14.289Z,5.83
2023-05-24T21:36:44.970Z,5.58
2023-05-24T21:39:16.389Z,5.30
2023-05-24T21:41:47.198Z,5.53
2023-05-24T21:44:17.792Z,5.60
2023-05-24T21:46:49.335Z,5.95
2023-05-24T21:49:25.388Z,5.92
2023-05-24T21:51:57.357Z,6.08
2023-05-24T21:54:28.288Z,5.72
2023-05-24T21:57:01.462Z,5.42
2023-05-24T21:59:32.008Z,7.28
2023-05-24T22:02:02.998Z,6.10
2023-05-24T22:04:35.769Z,5.80
2023-05-24T22:07:07.208Z,6.65
2023-05-24T22:09:39.325Z,5.70
2023-05-24T22:12:11.568Z,6.22
2023-05-24T22:14:42.148Z,6.50
2023-05-24T22:17:14.136Z,6.10
2023-05-24T22:19:49.541Z,7.78
2023-05-24T22:22:22.475Z,5.92
2023-05-24T22:24:53.053Z,5.72
2023-05-24T22:27:24.245Z,5.72
2023-05-24T22:29:55.995Z,5.93
2023-05-24T22:32:26.569Z,6.05
2023-05-24T22:34:57.252Z,6.22
2023-05-24T22:37:27.835Z,7.50
2023-05-24T22:39:58.701Z,6.08
2023-05-24T22:42:29.153Z,7.25
2023-05-24T22:45:00.074Z,6.87
2023-05-24T22:47:32.432Z,7.25
2023-05-24T22:50:04.753Z,6.75
2023-05-24T22:52:35.381Z,7.55
2023-05-24T22:55:06.326Z,7.10
2023-05-24T22:57:36.930Z,6.55
2023-05-24T23:00:08.867Z,6.50
2023-05-24T23:02:39.676Z,6.70
2023-05-24T23:05:11.612Z,6.80
2023-05-24T23:07:42.366Z,7.17
2023-05-24T23:10:13.015Z,7.25
2023-05-24T23:12:44.636Z,7.03
2023-05-24T23:15:16.872Z,6.97
2023-05-24T23:17:48.244Z,6.70
2023-05-24T23:20:19.339Z,6.80
2023-05-24T23:22:50.041Z,6.97
2023-05-24T23:25:21.748Z,6.37
2023-05-24T23:27:53.727Z,5.80
2023-05-24T23:30:25.547Z,6.75
2023-05-24T23:32:56.728Z,7.12
2023-05-24T23:35:27.292Z,7.62
2023-05-24T23:37:58.102Z,7.60
2023-05-24T23:40:30.034Z,7.90
2023-05-24T23:43:01.578Z,7.12
2023-05-24T23:45:32.173Z,7.37
2023-05-24T23:48:03.175Z,6.67
2023-05-24T23:50:42.867Z,6.45
2023-05-24T23:53:07.443Z,6.70
2023-05-24T23:55:38.609Z,7.40
2023-05-24T23:58:11.968Z,6.97
